Impacts METAR Board
IDs:

KATL - Atlanta/Hartsfield-J, GA, US

Updated at: 1600 UTC 20 Aug 2019
Potential Impact None Slight Moderate High
Time 20/04Z 20/05Z 20/06Z 20/07Z 20/08Z 20/09Z 20/10Z 20/11Z 20/12Z 20/13Z 20/14Z 20/15Z 20/16Z
Temp76 75 74 74 73 72 72 72 73 74 75 80 85
Dewpt70 69 68 68 68 68 69 69 69 70 70 72 71
Altim30.11 30.11 30.12 30.09 30.09 30.10 30.11 30.13 30.15 30.15 30.15 30.13 30.15
VIS10 10 10 10 10 10 10 6 7 7 8 10 10
CIG150 250 65 9 -- 9 6 5 5 7 7 -- --
CoverBKNBKNBKNBKNSCTBKNOVCBKNBKNOVCOVCFEWSCT
FltCatVFRVFRVFRIFRVFRIFRIFRIFRIFRIFRIFRVFRVFR
WX--------------BR----------
WDir8010090100808070800120000
WSpd5 7 5 5 6 8 4 5 0 3 0 0 0
WGst-- -- -- -- -- -- -- -- -- -- -- -- --
Raw hourly METARs
KATL 200352Z 08005KT 10SM FEW045 BKN150 BKN250 24/21 A3011 RMK AO2 RAE03 SLP186 P0000 T02440211
KATL 200452Z 10007KT 10SM SCT045 SCT150 BKN250 24/21 A3011 RMK AO2 SLP186 T02390206 403390228
KATL 200552Z 09005KT 10SM FEW046 BKN065 BKN150 23/20 A3012 RMK AO2 SLP187 60008 T02330200 10306 20228 51007
KATL 200657Z 10005KT 10SM BKN009 BKN065 23/20 A3009 RMK AO2 T02330200
KATL 200752Z 08006KT 10SM SCT009 23/20 A3009 RMK AO2 SLP176 T02280200
KATL 200852Z 08008KT 10SM BKN009 22/20 A3010 RMK AO2 SLP180 T02220200 53001
KATL 200952Z 07004KT 10SM OVC006 22/21 A3011 RMK AO2 SLP185 CIG 005V007 T02220206
KATL 201052Z 08005KT 6SM BR BKN005 BKN008 BKN013 22/21 A3013 RMK AO2 SLP192 CIG 004V007 BINOVC T02220206
KATL 201152Z 00000KT 7SM BKN005 23/21 A3015 RMK AO2 SLP198 CIG 004V007 70008 T02280206 10233 20222 53017
KATL 201252Z 12003KT 7SM FEW004 BKN007 OVC013 23/21 A3015 RMK AO2 SLP200 CIG 005V008 T02330211 $
KATL 201352Z 00000KT 8SM BKN007 OVC011 24/21 A3015 RMK AO2 SLP198 T02390211 $
KATL 201452Z 00000KT 10SM FEW010 27/22 A3013 RMK AO2 SLP194 T02670222 58005
KATL 201552Z 00000KT 10SM SCT020 29/22 A3015 RMK AO2 SLP199 T02940217



Page loaded:  16:44 UTC  |   09:44 AM Pacific  |   10:44 AM Mountain  |   11:44 AM Central  |   12:44 PM Eastern

 

ADVISORIES

FORECASTS

FORECASTS

OBSERVATIONS

USER TOOLS

ABOUT US